Bodega, California
Current Conditions -  °F | °C
As of 6:20 AM on Saturday 22 Nov 2014 (Local Time) from KSTS Reporting Station
Light Rain Light Rain  
Wind Chill: 61°   Ceiling: 1300
Heat Index: 61°   Visibility: 7mi
Dew Point: 61°   Wind: 5mph
Humidity: 100%   Direction: 170°S
Pressure: 29.99"   Gusts: NA
Location:  38.35°N, 122.97°W
Report Text: KSTS 221420Z AUTO 17004KT 7SM -RA OVC013 16/16 A2999 RMK AO2 P0000
Loading
Personal Weather Stations






























Interactive Weather Map New forecast layout! Learn more

10-Day Weather Forecast

Advertisements
Track Severe Weather on mobile